Schedule Details


Flight Number: CTN345
Departure: Sarajevo (LQSA) at 16:15
Arrival: Franjo Tudman (LDZA) at 17:05
Route: BOSNA L608 KOMAR L187 TEBLI

Weather Information
LQSA 221530Z 14004KT 100V170 CAVOK 20/10 Q1018 NOSIG
LDZA 221530Z 21005KT CAVOK 19/11 Q1016 NOSIG
Schedule Frequency

Route Map